Ringmer, United Kingdom
Current Conditions -  °F | °C
As of 7:50 AM on Wednesday 26 Nov 2014 (Local Time) from EGKA Reporting Station
Haze Haze  
Wind Chill: 42°   Ceiling: 200
Heat Index: 46°   Visibility: 0.68mi
Dew Point: 46°   Wind: 8mph
Humidity: 100%   Direction: 350°N
Pressure: 29.85"   Gusts: NA
Location:  50.89°N, 0.06°E
Report Text: EGKA 260750Z 35007KT 1100 BR BKN002 08/08 Q1011
Loading
Personal Weather Stations






























Interactive Weather Map New forecast layout! Learn more

10-Day Weather Forecast

Advertisements
Track Severe Weather on mobile